createdAt,value
2023-05-17T08:15:09.770Z,10.00
2023-05-17T08:17:38.498Z,10.10
2023-05-17T08:20:08.489Z,10.20
2023-05-17T08:22:38.467Z,10.20
2023-05-17T08:25:09.205Z,10.30
2023-05-17T08:27:39.634Z,10.60
2023-05-17T08:30:14.829Z,10.70
2023-05-17T08:32:47.904Z,10.60
2023-05-17T08:35:17.366Z,10.80
2023-05-17T08:42:39.214Z,11.10
2023-05-17T08:45:10.180Z,10.60
2023-05-17T08:47:40.855Z,10.60
2023-05-17T08:50:11.252Z,10.60
2023-05-17T08:52:41.892Z,10.80
2023-05-17T08:55:11.263Z,10.80
2023-05-17T08:57:43.615Z,10.90
2023-05-17T09:08:41.342Z,11.40
2023-05-17T09:11:10.843Z,11.70
2023-05-17T09:13:39.830Z,11.60
2023-05-17T09:16:15.882Z,11.60
2023-05-17T09:18:47.662Z,11.30
2023-05-17T09:21:16.953Z,11.30
2023-05-17T09:24:01.687Z,11.20
2023-05-17T09:26:42.320Z,11.10
2023-05-17T09:32:14.386Z,11.30
2023-05-17T09:34:43.676Z,11.40
2023-05-17T09:37:16.796Z,11.20
2023-05-17T09:39:47.390Z,11.40
2023-05-17T09:42:17.406Z,11.50
2023-05-17T09:44:56.022Z,11.50
2023-05-17T09:47:29.966Z,11.50
2023-05-17T09:54:38.392Z,11.30
2023-05-17T09:57:10.711Z,11.50
2023-05-17T09:59:39.555Z,11.60
2023-05-17T10:02:13.655Z,11.90
2023-05-17T10:04:44.869Z,12.00
2023-05-17T10:07:15.750Z,12.20
2023-05-17T10:12:35.654Z,12.10
2023-05-17T10:15:05.509Z,12.20
2023-05-17T10:17:36.220Z,12.50
2023-05-17T10:20:09.067Z,12.90
2023-05-17T10:22:39.499Z,13.00
2023-05-17T10:25:10.233Z,12.90
2023-05-17T10:27:42.320Z,12.80
2023-05-17T10:30:15.088Z,13.00
2023-05-17T10:35:28.292Z,13.30
2023-05-17T10:37:57.925Z,13.50
2023-05-17T10:40:28.063Z,13.60
2023-05-17T10:42:57.969Z,13.00
2023-05-17T10:45:28.010Z,12.50
2023-05-17T10:47:58.924Z,12.40
2023-05-17T10:53:22.507Z,12.70
2023-05-17T10:55:52.739Z,13.00
2023-05-17T10:58:22.832Z,13.10
2023-05-17T11:00:55.772Z,13.10
2023-05-17T11:03:30.243Z,13.60
2023-05-17T11:06:25.232Z,13.50
2023-05-17T11:14:19.463Z,13.30
2023-05-17T11:16:49.080Z,14.20
2023-05-17T11:19:21.824Z,13.80
2023-05-17T11:21:50.778Z,13.20
2023-05-17T11:24:27.718Z,12.90
2023-05-17T11:27:00.150Z,13.60
2023-05-17T11:32:12.434Z,14.10
2023-05-17T11:34:42.132Z,14.70
2023-05-17T11:37:13.983Z,14.40
2023-05-17T11:40:03.927Z,14.40
2023-05-17T11:42:33.010Z,13.70
2023-05-17T11:45:03.927Z,13.60
2023-05-17T11:47:34.505Z,13.70
2023-05-17T19:59:13.269Z,12.70
2023-05-17T20:01:42.098Z,12.70
2023-05-17T20:04:10.716Z,12.40
2023-05-17T20:06:39.619Z,12.40
2023-05-17T20:09:07.602Z,12.40
2023-05-17T20:11:36.380Z,12.50
2023-05-17T20:14:05.386Z,12.40
2023-05-17T20:16:35.628Z,12.30
2023-05-17T20:21:48.001Z,12.40
2023-05-17T20:24:15.994Z,12.30
2023-05-17T20:26:46.203Z,12.40
2023-05-17T20:29:14.580Z,12.20
2023-05-17T20:31:45.186Z,12.20
2023-05-17T20:34:13.900Z,12.20
2023-05-17T20:36:42.380Z,12.30
2023-05-17T20:41:52.247Z,12.30
2023-05-17T20:44:21.449Z,12.00
2023-05-17T20:46:49.519Z,12.00
2023-05-17T20:49:18.721Z,12.00
2023-05-17T20:51:47.431Z,11.80
2023-05-17T20:54:16.203Z,11.70
2023-05-17T20:56:44.373Z,11.50
2023-05-17T21:01:52.846Z,11.10
2023-05-17T21:04:21.891Z,11.20
2023-05-17T21:06:50.180Z,11.30
2023-05-17T21:09:18.900Z,11.20
2023-05-17T21:11:46.826Z,11.00
2023-05-17T21:14:15.413Z,10.60
2023-05-17T21:16:43.636Z,10.50
2023-05-17T21:21:52.672Z,10.40
2023-05-17T21:24:20.712Z,10.40
2023-05-17T21:26:49.084Z,9.90
2023-05-17T21:29:18.372Z,10.00
2023-05-17T21:31:47.567Z,9.70
2023-05-17T21:34:15.665Z,9.70
2023-05-17T21:36:44.365Z,9.80
2023-05-17T21:39:12.937Z,9.40
2023-05-17T21:45:21.766Z,9.40
2023-05-17T21:47:50.172Z,9.50
2023-05-17T21:50:19.032Z,9.70
2023-05-17T21:52:47.119Z,9.90
2023-05-17T21:55:15.487Z,10.10
2023-05-17T21:57:43.253Z,10.30
2023-05-17T22:00:13.119Z,9.90
